Capreol, Canada
Current Conditions -  °F | °C
As of 1:00 PM on Monday 22 Dec 2014 (Local Time) from CYSB Reporting Station
Light Snow Light Snow  
Wind Chill: 17°   Ceiling: 2600
Heat Index: 27°   Visibility: 12mi
Dew Point: 25°   Wind: 10mph
Humidity: 93%   Direction: 160°SSE
Pressure: 30.1"   Gusts: NA
Location:  46.7°N, 80.92°W
Report Text: CYSB 221800Z 16009KT 12SM -SN FEW011 OVC026 M03/M04 A3010 RMK CF2SC6 SLP214
Loading
Personal Weather Stations






























Interactive Weather Map New forecast layout! Learn more

10-Day Weather Forecast

Advertisements
Track Severe Weather on mobile